createdAt,value
2023-03-01T00:01:53.286Z,19.64
2023-03-01T00:04:21.950Z,19.50
2023-03-01T00:06:50.810Z,19.40
2023-03-01T00:09:19.721Z,19.52
2023-03-01T00:11:48.671Z,19.47
2023-03-01T00:14:20.581Z,19.52
2023-03-01T00:16:49.555Z,19.42
2023-03-01T00:19:20.914Z,19.58
2023-03-01T00:21:50.398Z,19.42
2023-03-01T00:24:19.008Z,19.50
2023-03-01T00:26:48.424Z,19.47
2023-03-01T00:29:17.029Z,19.39
2023-03-01T00:31:45.759Z,19.41
2023-03-01T00:34:14.339Z,19.34
2023-03-01T00:36:43.298Z,19.34
2023-03-01T00:39:17.331Z,19.54
2023-03-01T00:41:46.471Z,19.26
2023-03-01T00:44:15.060Z,19.25
2023-03-01T00:46:43.847Z,19.36
2023-03-01T00:49:12.620Z,19.28
2023-03-01T00:51:43.259Z,19.34
2023-03-01T00:54:12.387Z,19.34
2023-03-01T00:56:40.991Z,19.32
2023-03-01T00:59:09.765Z,19.36
2023-03-01T01:01:38.678Z,19.31
2023-03-01T01:04:11.050Z,19.43
2023-03-01T01:06:46.375Z,19.44
2023-03-01T01:09:21.129Z,19.40
2023-03-01T01:11:53.290Z,19.36
2023-03-01T01:14:23.524Z,19.28
2023-03-01T01:16:53.046Z,19.35
2023-03-01T01:19:23.383Z,19.33
2023-03-01T01:21:52.968Z,19.32
2023-03-01T01:24:22.024Z,19.31
2023-03-01T01:26:51.972Z,19.33
2023-03-01T01:29:21.370Z,19.30
2023-03-01T01:31:51.285Z,19.26
2023-03-01T01:34:22.901Z,19.38
2023-03-01T01:36:56.001Z,19.21
2023-03-01T01:39:25.907Z,19.22
2023-03-01T01:41:54.836Z,19.21
2023-03-01T01:44:27.340Z,19.27
2023-03-01T01:47:03.986Z,19.39
2023-03-01T01:49:36.140Z,19.20
2023-03-01T01:52:12.796Z,19.28
2023-03-01T01:54:51.819Z,19.23
2023-03-01T01:57:26.391Z,19.40
2023-03-01T02:00:02.489Z,19.40
2023-03-01T02:02:45.174Z,19.15
2023-03-01T02:05:18.447Z,19.55
2023-03-01T02:07:49.013Z,19.36
2023-03-01T02:10:23.820Z,19.34
2023-03-01T02:12:54.431Z,19.34
2023-03-01T02:15:24.086Z,19.32
2023-03-01T02:17:54.159Z,19.37
2023-03-01T02:20:42.895Z,19.48
2023-03-01T02:23:11.949Z,19.37
2023-03-01T02:25:55.732Z,19.60
2023-03-01T02:28:46.182Z,19.69
2023-03-01T02:31:37.984Z,19.55
2023-03-01T02:34:08.714Z,19.55
2023-03-01T02:36:47.924Z,19.74
2023-03-01T02:39:23.288Z,19.75
2023-03-01T02:41:55.536Z,19.69
2023-03-01T02:44:24.983Z,19.97
2023-03-01T02:46:58.377Z,19.80
2023-03-01T02:49:34.088Z,19.86
2023-03-01T02:52:41.222Z,19.97
2023-03-01T02:55:14.815Z,19.88
2023-03-01T02:57:46.325Z,19.94
2023-03-01T03:00:23.710Z,20.06
2023-03-01T03:02:54.484Z,20.05
2023-03-01T03:05:30.432Z,20.10
2023-03-01T03:08:02.168Z,20.19
2023-03-01T03:10:41.333Z,20.33
2023-03-01T03:13:13.673Z,20.29
2023-03-01T03:15:45.101Z,20.32
2023-03-01T03:18:17.603Z,20.47
2023-03-01T03:20:47.442Z,20.37
2023-03-01T03:23:16.250Z,20.45
2023-03-01T03:25:45.191Z,20.43
2023-03-01T03:28:13.720Z,20.59
2023-03-01T03:30:43.696Z,20.69
2023-03-01T03:33:14.120Z,20.74
2023-03-01T03:35:49.509Z,20.86
2023-03-01T03:38:21.628Z,20.92
2023-03-01T03:40:53.060Z,20.83
2023-03-01T03:43:24.823Z,20.89
2023-03-01T03:45:54.147Z,20.98
2023-03-01T03:48:23.051Z,21.08
2023-03-01T03:50:55.713Z,21.13
2023-03-01T03:53:24.895Z,21.23
2023-03-01T03:55:53.654Z,21.09
2023-03-01T03:58:24.489Z,21.33
2023-03-01T04:00:59.095Z,21.42
2023-03-01T04:03:29.669Z,21.42
2023-03-01T04:06:00.972Z,21.44
2023-03-01T04:08:30.696Z,21.50
2023-03-01T04:11:22.927Z,21.53
2023-03-01T04:13:52.890Z,21.61
2023-03-01T04:16:21.658Z,21.32
2023-03-01T04:18:50.516Z,21.49
2023-03-01T04:21:19.421Z,21.58
2023-03-01T04:23:48.322Z,21.78
2023-03-01T04:26:16.953Z,21.72
2023-03-01T04:28:47.669Z,21.93
2023-03-01T04:31:20.109Z,21.97
2023-03-01T04:33:50.568Z,22.02
2023-03-01T04:36:21.200Z,22.31
2023-03-01T04:38:50.791Z,22.18
2023-03-01T04:41:22.906Z,22.62
2023-03-01T04:43:52.348Z,22.66
2023-03-01T04:46:30.166Z,22.87
2023-03-01T04:48:59.535Z,22.63
2023-03-01T04:51:28.122Z,22.71
2023-03-01T04:53:57.367Z,22.93
2023-03-01T04:56:26.060Z,22.89
2023-03-01T04:58:57.974Z,23.17
2023-03-01T05:01:26.806Z,23.20
2023-03-01T05:03:55.408Z,23.18
2023-03-01T05:06:24.409Z,23.27
2023-03-01T05:08:53.006Z,23.23
2023-03-01T05:11:22.045Z,23.08
2023-03-01T05:13:51.843Z,23.15
2023-03-01T05:16:21.891Z,23.52
2023-03-01T05:18:52.252Z,23.52
2023-03-01T05:21:21.066Z,23.31
2023-03-01T05:23:49.904Z,23.49
2023-03-01T05:26:39.417Z,23.70
2023-03-01T05:29:08.597Z,23.55
2023-03-01T05:31:37.120Z,23.80
2023-03-01T05:34:06.592Z,23.62
2023-03-01T05:36:36.600Z,23.62
2023-03-01T05:39:05.536Z,23.60
2023-03-01T05:41:34.056Z,23.95
2023-03-01T05:44:02.927Z,23.88
2023-03-01T05:46:31.736Z,24.00
2023-03-01T05:49:02.035Z,23.89
2023-03-01T05:51:31.264Z,23.65
2023-03-01T05:54:00.049Z,23.54
2023-03-01T05:56:28.913Z,23.71
2023-03-01T05:58:57.938Z,23.94
2023-03-01T06:01:26.511Z,24.16
2023-03-01T06:03:55.312Z,24.25
2023-03-01T06:06:23.910Z,24.22
2023-03-01T06:08:53.771Z,24.32
2023-03-01T06:11:23.504Z,24.26
2023-03-01T06:13:52.475Z,24.29
2023-03-01T06:16:21.121Z,24.17
2023-03-01T06:18:49.978Z,24.06
2023-03-01T06:21:18.578Z,24.08
2023-03-01T06:23:47.492Z,24.07
2023-03-01T06:26:16.110Z,24.19
2023-03-01T06:28:47.969Z,24.47
2023-03-01T06:31:17.155Z,24.26
2023-03-01T06:33:46.532Z,24.26
2023-03-01T06:36:15.361Z,24.56
2023-03-01T06:38:45.010Z,24.62
2023-03-01T06:41:13.769Z,24.60
2023-03-01T06:43:42.463Z,24.74
2023-03-01T06:46:11.196Z,24.95
2023-03-01T06:48:40.072Z,24.79
2023-03-01T06:51:08.907Z,25.11
2023-03-01T06:53:37.447Z,25.22
2023-03-01T06:56:06.512Z,25.32
2023-03-01T06:58:35.163Z,25.63
2023-03-01T07:01:08.636Z,25.46
2023-03-01T07:03:37.489Z,25.39
2023-03-01T07:06:06.237Z,25.54
2023-03-01T07:08:34.974Z,25.71
2023-03-01T07:11:05.477Z,25.89
2023-03-01T07:13:34.771Z,26.17
2023-03-01T07:16:03.425Z,26.16
2023-03-01T07:18:32.283Z,25.98
2023-03-01T07:21:05.557Z,25.90
2023-03-01T07:23:34.554Z,25.71
2023-03-01T07:26:03.477Z,25.95
2023-03-01T07:28:32.618Z,25.83
2023-03-01T07:31:05.577Z,26.27
2023-03-01T07:33:35.004Z,25.89
2023-03-01T07:36:05.495Z,26.24
2023-03-01T07:38:34.643Z,25.82
2023-03-01T07:41:05.231Z,26.10
2023-03-01T07:43:34.272Z,26.38
2023-03-01T07:46:04.197Z,26.21
2023-03-01T07:48:34.523Z,26.49
2023-03-01T07:51:06.251Z,26.41
2023-03-01T07:53:38.730Z,26.28
2023-03-01T07:56:11.121Z,26.61
2023-03-01T07:58:41.949Z,26.22
2023-03-01T08:01:14.280Z,26.43
2023-03-01T08:03:44.253Z,26.16
2023-03-01T08:06:14.995Z,26.25
2023-03-01T08:08:44.149Z,26.36
2023-03-01T08:11:15.204Z,26.27
2023-03-01T08:13:45.089Z,26.45
2023-03-01T08:16:16.375Z,26.29
2023-03-01T08:18:45.789Z,26.23
2023-03-01T08:21:19.089Z,25.99
2023-03-01T08:23:48.249Z,26.23
2023-03-01T08:26:22.445Z,26.23
2023-03-01T08:28:52.194Z,25.48
2023-03-01T08:31:26.709Z,25.41
2023-03-01T08:33:58.195Z,25.45
2023-03-01T08:36:29.649Z,25.79
2023-03-01T08:38:59.200Z,25.90
2023-03-01T08:41:28.146Z,25.67
2023-03-01T08:44:00.599Z,25.88
2023-03-01T08:46:31.763Z,26.07
2023-03-01T08:49:01.261Z,26.05
2023-03-01T08:51:31.019Z,26.01
2023-03-01T08:53:59.939Z,26.26
2023-03-01T08:56:28.960Z,26.01
2023-03-01T08:58:57.918Z,26.14
2023-03-01T09:01:27.087Z,26.43
2023-03-01T09:03:56.300Z,26.51
2023-03-01T09:06:25.552Z,26.38
2023-03-01T09:08:54.621Z,26.03
2023-03-01T09:11:24.627Z,26.11
2023-03-01T09:13:53.841Z,26.17
2023-03-01T09:16:24.394Z,26.46
2023-03-01T09:18:55.072Z,26.30
2023-03-01T09:21:39.064Z,26.80
2023-03-01T09:24:15.650Z,26.83
2023-03-01T09:26:45.295Z,26.87
2023-03-01T09:29:14.204Z,26.70
2023-03-01T09:31:44.285Z,26.42
2023-03-01T09:34:13.172Z,26.58
2023-03-01T09:36:42.153Z,26.63
2023-03-01T09:39:13.104Z,26.75
2023-03-01T09:42:01.730Z,27.05
2023-03-01T09:44:54.033Z,27.00
2023-03-01T09:47:25.875Z,26.56
2023-03-01T09:50:07.095Z,26.81
2023-03-01T09:52:44.089Z,26.81
2023-03-01T09:55:19.951Z,26.80
2023-03-01T09:58:11.455Z,26.85
2023-03-01T10:00:50.058Z,26.67
2023-03-01T10:03:34.076Z,26.88
2023-03-01T10:06:06.891Z,26.86
2023-03-01T10:08:43.580Z,26.27
2023-03-01T10:11:22.634Z,26.76
2023-03-01T10:14:05.681Z,26.41
2023-03-01T10:17:09.679Z,26.48
2023-03-01T10:19:45.296Z,26.14
2023-03-01T10:22:20.115Z,26.07
2023-03-01T10:24:49.674Z,26.13
2023-03-01T10:27:46.450Z,26.10
2023-03-01T10:30:41.234Z,26.41
2023-03-01T10:33:21.866Z,26.31
2023-03-01T10:35:51.133Z,25.95
2023-03-01T10:38:24.617Z,25.98
2023-03-01T10:41:01.344Z,25.98
2023-03-01T10:43:50.365Z,26.02
2023-03-01T10:46:35.664Z,26.14
2023-03-01T10:49:16.563Z,25.98
2023-03-01T10:51:48.244Z,25.88
2023-03-01T10:54:35.285Z,25.69
2023-03-01T10:57:06.359Z,25.70
2023-03-01T10:59:37.600Z,25.84
2023-03-01T11:02:23.794Z,25.50
2023-03-01T11:05:00.606Z,25.65
2023-03-01T11:07:30.527Z,25.44
2023-03-01T11:09:59.391Z,25.50
2023-03-01T11:12:31.579Z,25.74
2023-03-01T11:15:00.802Z,25.77
2023-03-01T11:17:41.650Z,25.80
2023-03-01T11:20:16.938Z,25.87
2023-03-01T11:23:03.680Z,25.63
2023-03-01T11:25:39.418Z,25.52
2023-03-01T11:28:13.129Z,25.68
2023-03-01T11:31:07.731Z,25.67
2023-03-01T11:33:58.437Z,25.65
2023-03-01T11:36:33.404Z,25.59
2023-03-01T11:39:19.825Z,25.70
2023-03-01T11:41:54.973Z,25.59
2023-03-01T11:44:30.675Z,25.66
2023-03-01T11:46:59.603Z,25.47
2023-03-01T11:50:00.059Z,25.71
2023-03-01T11:52:29.025Z,25.34
2023-03-01T11:55:39.827Z,25.45
2023-03-01T11:58:43.617Z,25.25
2023-03-01T12:01:15.460Z,24.89
2023-03-01T12:04:12.589Z,25.05
2023-03-01T12:06:59.429Z,24.97
2023-03-01T12:09:33.932Z,25.03
2023-03-01T12:12:29.321Z,25.02
2023-03-01T12:15:31.828Z,25.11
2023-03-01T12:18:07.017Z,24.75
2023-03-01T12:20:45.602Z,24.94
2023-03-01T12:23:35.448Z,24.92
2023-03-01T12:26:09.770Z,24.68
2023-03-01T12:29:08.093Z,24.72
2023-03-01T12:31:59.014Z,24.59
2023-03-01T12:34:51.726Z,24.83
2023-03-01T12:37:39.443Z,24.59
2023-03-01T12:40:14.791Z,24.59
2023-03-01T12:42:53.870Z,24.54
2023-03-01T12:45:45.784Z,24.69
2023-03-01T12:48:37.796Z,24.74
2023-03-01T12:51:16.360Z,24.37
2023-03-01T12:53:55.688Z,24.64
2023-03-01T12:56:27.879Z,24.35
2023-03-01T12:59:18.160Z,24.44
2023-03-01T13:02:28.690Z,24.40
2023-03-01T13:05:20.750Z,24.28
2023-03-01T13:08:00.177Z,24.41
2023-03-01T13:11:03.892Z,24.30
2023-03-01T13:13:33.959Z,24.19
2023-03-01T13:16:46.948Z,24.46
2023-03-01T13:19:17.772Z,24.52
2023-03-01T13:21:48.880Z,24.16
2023-03-01T13:24:41.965Z,24.19
2023-03-01T13:27:31.276Z,24.10
2023-03-01T13:30:05.433Z,24.16
2023-03-01T13:32:49.165Z,23.95
2023-03-01T13:35:23.256Z,23.91
2023-03-01T13:37:52.398Z,23.88
2023-03-01T13:40:21.198Z,23.97
2023-03-01T13:43:04.643Z,24.10
2023-03-01T13:45:42.420Z,23.90
2023-03-01T13:48:31.494Z,23.99
2023-03-01T13:51:13.147Z,23.95
2023-03-01T13:53:48.757Z,23.85
2023-03-01T13:56:27.289Z,23.91
2023-03-01T13:58:59.281Z,23.54
2023-03-01T14:01:30.575Z,23.76
2023-03-01T14:04:01.017Z,23.47
2023-03-01T14:06:33.635Z,23.54
2023-03-01T14:09:05.106Z,23.83
2023-03-01T14:11:46.268Z,23.44
2023-03-01T14:14:50.555Z,23.43
2023-03-01T14:17:44.216Z,23.52
2023-03-01T14:20:28.166Z,23.35
2023-03-01T14:23:11.542Z,23.24
2023-03-01T14:25:48.344Z,23.21
2023-03-01T14:28:21.921Z,23.26
2023-03-01T14:30:53.810Z,23.22
2023-03-01T14:33:30.994Z,23.27
2023-03-01T14:36:11.917Z,23.27
2023-03-01T14:38:48.918Z,23.00
2023-03-01T14:41:22.278Z,22.96
2023-03-01T14:43:59.941Z,22.99
2023-03-01T14:46:34.279Z,22.61
2023-03-01T14:49:21.673Z,22.84
2023-03-01T14:52:10.121Z,22.98
2023-03-01T14:54:47.049Z,22.72
2023-03-01T14:57:34.212Z,22.70
2023-03-01T15:00:08.599Z,22.75
2023-03-01T15:02:39.578Z,22.49
2023-03-01T15:05:10.175Z,22.49
2023-03-01T15:07:43.667Z,22.42
2023-03-01T15:10:23.649Z,22.49
2023-03-01T15:12:54.750Z,22.29
2023-03-01T15:15:40.556Z,22.48
2023-03-01T15:18:37.121Z,22.37
2023-03-01T15:21:20.596Z,22.46
2023-03-01T15:23:57.517Z,22.38
2023-03-01T15:26:57.152Z,22.30
2023-03-01T15:29:35.363Z,22.29
2023-03-01T15:32:08.743Z,22.00
2023-03-01T15:34:40.062Z,22.18
2023-03-01T15:37:41.010Z,22.45
2023-03-01T15:40:35.000Z,22.49
2023-03-01T15:43:06.750Z,22.17
2023-03-01T15:45:36.195Z,22.17
2023-03-01T15:48:22.036Z,22.22
2023-03-01T15:51:00.631Z,22.33
2023-03-01T15:53:30.641Z,22.18
2023-03-01T15:55:59.380Z,21.94
2023-03-01T15:58:28.442Z,21.93
2023-03-01T16:01:02.324Z,22.17
2023-03-01T16:03:31.799Z,22.06
2023-03-01T16:06:00.525Z,22.12
2023-03-01T16:08:29.711Z,22.13
2023-03-01T16:10:58.422Z,22.08
2023-03-01T16:13:29.073Z,22.03
2023-03-01T16:15:58.422Z,21.96
2023-03-01T16:18:30.056Z,21.95
2023-03-01T16:20:59.052Z,21.94
2023-03-01T16:23:27.744Z,21.76
2023-03-01T16:26:00.837Z,21.64
2023-03-01T16:28:30.322Z,21.51
2023-03-01T16:30:59.229Z,21.64
2023-03-01T16:33:33.841Z,21.64
2023-03-01T16:36:09.115Z,21.63
2023-03-01T16:38:38.983Z,21.55
2023-03-01T16:41:07.801Z,21.48
2023-03-01T16:43:36.807Z,21.54
2023-03-01T16:46:16.059Z,21.58
2023-03-01T16:48:44.985Z,21.45
2023-03-01T16:51:14.635Z,21.60
2023-03-01T16:53:45.614Z,21.50
2023-03-01T16:56:16.357Z,21.65
2023-03-01T16:58:46.036Z,21.56
2023-03-01T17:01:18.328Z,21.56
2023-03-01T17:03:49.333Z,21.58
2023-03-01T17:06:22.241Z,21.58
2023-03-01T17:08:51.628Z,21.42
2023-03-01T17:11:22.241Z,21.58
2023-03-01T17:13:51.253Z,21.47
2023-03-01T17:16:21.915Z,21.45
2023-03-01T17:18:51.201Z,21.28
2023-03-01T17:21:20.436Z,21.45
2023-03-01T17:23:51.243Z,21.36
2023-03-01T17:26:20.160Z,21.45
2023-03-01T17:28:52.776Z,21.49
2023-03-01T17:31:22.548Z,21.55
2023-03-01T17:33:52.084Z,21.64
2023-03-01T17:36:21.108Z,21.56
2023-03-01T17:38:50.780Z,21.57
2023-03-01T17:41:20.373Z,21.61
2023-03-01T17:43:49.452Z,21.50
2023-03-01T17:46:18.251Z,21.55
2023-03-01T17:48:47.311Z,21.43
2023-03-01T17:51:16.086Z,21.44
2023-03-01T17:53:45.045Z,21.48
2023-03-01T17:56:13.795Z,21.45
2023-03-01T17:58:42.932Z,21.34
2023-03-01T18:01:17.831Z,21.31
2023-03-01T18:03:47.736Z,21.26
2023-03-01T18:06:19.889Z,21.29
2023-03-01T18:08:50.329Z,21.20
2023-03-01T18:11:20.635Z,21.17
2023-03-01T18:13:50.297Z,21.14
2023-03-01T18:16:21.555Z,21.22
2023-03-01T18:18:55.672Z,21.24
2023-03-01T18:21:25.418Z,21.10
2023-03-01T18:23:55.676Z,21.14
2023-03-01T18:26:25.889Z,21.17
2023-03-01T18:28:59.121Z,21.16
2023-03-01T18:31:28.558Z,21.13
2023-03-01T18:33:57.322Z,21.14
2023-03-01T18:36:27.727Z,21.08
2023-03-01T18:38:57.649Z,21.14
2023-03-01T18:41:29.030Z,21.23
2023-03-01T18:43:58.724Z,21.17
2023-03-01T18:46:27.697Z,21.12
2023-03-01T18:48:57.173Z,21.12
2023-03-01T18:51:29.176Z,21.20
2023-03-01T18:53:59.805Z,21.12
2023-03-01T18:56:31.684Z,21.20
2023-03-01T18:59:01.783Z,21.04
2023-03-01T19:01:33.007Z,21.06
2023-03-01T19:04:03.948Z,20.99
2023-03-01T19:06:35.818Z,20.94
2023-03-01T19:09:06.040Z,20.91
2023-03-01T19:11:36.428Z,20.82
2023-03-01T19:14:06.335Z,20.87
2023-03-01T19:16:36.780Z,20.82
2023-03-01T19:19:09.320Z,20.85
2023-03-01T19:21:38.280Z,21.05
2023-03-01T19:24:08.215Z,20.63
2023-03-01T19:26:37.448Z,20.64
2023-03-01T19:29:07.191Z,20.63
2023-03-01T19:31:36.141Z,20.61
2023-03-01T19:34:11.445Z,20.68
2023-03-01T19:36:43.555Z,20.64
2023-03-01T19:39:14.431Z,20.63
2023-03-01T19:41:44.402Z,20.64
2023-03-01T19:44:14.016Z,20.59
2023-03-01T19:46:43.542Z,20.68
2023-03-01T19:49:12.739Z,20.55
2023-03-01T19:51:41.559Z,20.53
2023-03-01T19:54:12.658Z,20.52
2023-03-01T19:56:42.132Z,20.40
2023-03-01T19:59:10.949Z,20.40
2023-03-01T20:01:43.233Z,20.40
2023-03-01T20:04:13.816Z,20.46
2023-03-01T20:06:45.621Z,20.52
2023-03-01T20:09:21.742Z,20.52
2023-03-01T20:11:52.543Z,20.47
2023-03-01T20:14:23.857Z,20.40
2023-03-01T20:16:53.927Z,20.45
2023-03-01T20:19:22.885Z,20.44
2023-03-01T20:21:51.978Z,20.42
2023-03-01T20:24:20.952Z,20.39
2023-03-01T20:26:49.969Z,20.43
2023-03-01T20:29:18.755Z,20.43
2023-03-01T20:31:47.867Z,20.42
2023-03-01T20:34:16.946Z,20.50
2023-03-01T20:36:46.030Z,20.43
2023-03-01T20:39:15.217Z,20.55
2023-03-01T20:41:44.168Z,20.48
2023-03-01T20:44:13.108Z,20.50
2023-03-01T20:46:42.307Z,20.41
2023-03-01T20:49:11.886Z,20.33
2023-03-01T20:51:40.926Z,20.41
2023-03-01T20:54:11.516Z,20.46
2023-03-01T20:56:40.543Z,20.42
2023-03-01T20:59:10.725Z,20.53
2023-03-01T21:01:40.888Z,20.36
2023-03-01T21:04:10.821Z,20.39
2023-03-01T21:06:40.082Z,20.38
2023-03-01T21:09:09.063Z,20.39
2023-03-01T21:11:37.955Z,20.30
2023-03-01T21:14:06.807Z,20.34
2023-03-01T21:16:36.453Z,20.34
2023-03-01T21:19:09.009Z,20.34
2023-03-01T21:21:40.473Z,20.37
2023-03-01T21:24:11.411Z,20.30
2023-03-01T21:26:40.583Z,20.33
2023-03-01T21:29:09.399Z,20.30
2023-03-01T21:31:38.544Z,20.32
2023-03-01T21:34:08.207Z,20.33
2023-03-01T21:36:37.191Z,20.34
2023-03-01T21:39:07.340Z,20.39
2023-03-01T21:41:38.628Z,20.43
2023-03-01T21:44:08.913Z,20.34
2023-03-01T21:46:40.331Z,20.42
2023-03-01T21:49:09.708Z,20.35
2023-03-01T21:51:38.545Z,20.32
2023-03-01T21:54:08.344Z,20.15
2023-03-01T21:56:39.740Z,20.11
2023-03-01T21:59:13.527Z,20.21
2023-03-01T22:01:43.042Z,20.16
2023-03-01T22:04:14.012Z,20.23
2023-03-01T22:06:45.511Z,20.28
2023-03-01T22:09:20.849Z,20.10
2023-03-01T22:11:54.792Z,20.24
2023-03-01T22:14:23.949Z,20.18
2023-03-01T22:16:52.799Z,20.25
2023-03-01T22:19:22.777Z,20.27
2023-03-01T22:21:53.422Z,20.20
2023-03-01T22:24:25.178Z,20.24
2023-03-01T22:26:55.469Z,20.23
2023-03-01T22:29:30.314Z,20.23
2023-03-01T22:32:00.508Z,20.19
2023-03-01T22:34:30.122Z,20.18
2023-03-01T22:36:59.522Z,20.16
2023-03-01T22:39:28.523Z,20.20
2023-03-01T22:41:57.204Z,20.13
2023-03-01T22:44:26.675Z,20.04
2023-03-01T22:46:55.461Z,20.01
2023-03-01T22:49:24.549Z,20.09
2023-03-01T22:51:53.626Z,19.96
2023-03-01T22:54:22.944Z,19.93
2023-03-01T22:56:51.767Z,19.98
2023-03-01T22:59:25.861Z,20.08
2023-03-01T23:01:55.969Z,20.08
2023-03-01T23:04:25.289Z,19.93
2023-03-01T23:06:57.699Z,19.85
2023-03-01T23:09:26.564Z,19.96
2023-03-01T23:11:56.024Z,19.98
2023-03-01T23:14:26.318Z,19.83
2023-03-01T23:16:55.351Z,19.87
2023-03-01T23:19:24.688Z,19.88
2023-03-01T23:21:55.300Z,19.78
2023-03-01T23:24:32.376Z,19.98
2023-03-01T23:27:02.957Z,19.87
2023-03-01T23:29:32.743Z,19.90
2023-03-01T23:32:02.426Z,19.74
2023-03-01T23:34:31.601Z,19.88
2023-03-01T23:37:00.300Z,19.85
2023-03-01T23:39:30.824Z,19.82
2023-03-01T23:42:00.072Z,19.88
2023-03-01T23:44:28.845Z,19.79
2023-03-01T23:46:57.727Z,19.73
2023-03-01T23:49:26.537Z,19.78
2023-03-01T23:51:55.522Z,19.82
2023-03-01T23:54:25.638Z,19.82
2023-03-01T23:56:54.812Z,19.61
2023-03-01T23:59:25.508Z,19.80
